createdAt,value
2023-03-07T00:00:15.831Z,48.99
2023-03-07T00:02:43.510Z,49.58
2023-03-07T00:05:10.701Z,49.01
2023-03-07T00:07:38.827Z,49.22
2023-03-07T00:10:06.986Z,49.54
2023-03-07T00:12:34.344Z,49.38
2023-03-07T00:15:01.881Z,49.62
2023-03-07T00:17:29.696Z,49.39
2023-03-07T00:19:57.044Z,49.53
2023-03-07T00:22:24.340Z,49.75
2023-03-07T00:24:51.506Z,49.71
2023-03-07T00:27:18.965Z,49.82
2023-03-07T00:29:48.780Z,49.70
2023-03-07T00:32:16.460Z,49.94
2023-03-07T00:34:44.074Z,49.93
2023-03-07T00:37:11.685Z,49.76
2023-03-07T00:39:38.987Z,50.04
2023-03-07T00:42:06.596Z,49.74
2023-03-07T00:44:34.068Z,49.86
2023-03-07T00:47:01.579Z,50.14
2023-03-07T00:49:28.969Z,50.13
2023-03-07T00:51:57.256Z,49.77
2023-03-07T00:54:25.160Z,49.63
2023-03-07T00:56:52.773Z,49.83
2023-03-07T00:59:20.407Z,49.63
2023-03-07T01:01:48.115Z,49.83
2023-03-07T01:04:15.643Z,49.41
2023-03-07T01:06:43.126Z,49.56
2023-03-07T01:09:10.532Z,49.72
2023-03-07T01:11:39.207Z,49.54
2023-03-07T01:14:07.062Z,49.64
2023-03-07T01:16:36.740Z,49.24
2023-03-07T01:19:06.354Z,49.27
2023-03-07T01:21:35.992Z,49.38
2023-03-07T01:24:07.569Z,49.21
2023-03-07T01:26:35.056Z,49.10
2023-03-07T01:29:03.920Z,49.16
2023-03-07T01:31:35.250Z,49.11
2023-03-07T01:34:02.711Z,48.81
2023-03-07T01:36:34.087Z,48.68
2023-03-07T01:39:10.117Z,48.92
2023-03-07T01:41:41.196Z,48.10
2023-03-07T01:44:24.799Z,48.42
2023-03-07T01:46:54.587Z,48.05
2023-03-07T01:49:39.368Z,47.84
2023-03-07T01:52:25.443Z,47.64
2023-03-07T01:55:03.396Z,47.47
2023-03-07T01:57:37.303Z,47.23
2023-03-07T02:00:09.465Z,46.97
2023-03-07T02:02:44.413Z,47.00
2023-03-07T02:05:16.893Z,46.65
2023-03-07T02:07:46.937Z,46.62
2023-03-07T02:10:15.671Z,46.30
2023-03-07T02:12:42.957Z,46.11
2023-03-07T02:15:11.720Z,45.53
2023-03-07T02:17:40.525Z,45.57
2023-03-07T02:20:38.778Z,45.37
2023-03-07T02:23:13.729Z,44.67
2023-03-07T02:25:42.770Z,44.19
2023-03-07T02:28:11.908Z,44.13
2023-03-07T02:30:39.912Z,44.21
2023-03-07T02:33:07.783Z,44.27
2023-03-07T02:35:35.480Z,43.62
2023-03-07T02:38:04.319Z,43.80
2023-03-07T02:40:32.167Z,43.54
2023-03-07T02:43:01.305Z,43.42
2023-03-07T02:45:29.497Z,43.23
2023-03-07T02:47:57.013Z,42.92
2023-03-07T02:50:24.549Z,42.89
2023-03-07T02:52:53.904Z,42.60
2023-03-07T02:55:21.427Z,42.12
2023-03-07T02:57:55.759Z,41.87
2023-03-07T03:00:23.215Z,41.75
2023-03-07T03:02:50.738Z,41.16
2023-03-07T03:05:20.115Z,41.40
2023-03-07T03:07:48.647Z,40.78
2023-03-07T03:10:16.957Z,41.23
2023-03-07T03:12:44.679Z,40.80
2023-03-07T03:15:13.033Z,41.14
2023-03-07T03:17:40.753Z,40.31
2023-03-07T03:20:11.797Z,40.16
2023-03-07T03:22:40.240Z,39.56
2023-03-07T03:25:09.851Z,39.58
2023-03-07T03:27:39.724Z,39.41
2023-03-07T03:30:09.303Z,39.22
2023-03-07T03:32:40.139Z,39.13
2023-03-07T03:35:09.718Z,39.09
2023-03-07T03:37:37.565Z,39.53
2023-03-07T03:40:14.283Z,39.65
2023-03-07T03:42:44.406Z,39.36
2023-03-07T03:45:14.778Z,38.98
2023-03-07T03:47:42.500Z,38.93
2023-03-07T03:50:10.967Z,39.47
2023-03-07T03:52:39.782Z,38.55
2023-03-07T03:55:07.964Z,38.72
2023-03-07T03:57:35.570Z,39.19
2023-03-07T04:00:05.116Z,39.19
2023-03-07T04:02:40.177Z,39.46
2023-03-07T04:05:13.150Z,39.79
2023-03-07T04:07:40.601Z,40.19
2023-03-07T04:10:09.110Z,39.05
2023-03-07T04:12:36.583Z,39.18
2023-03-07T04:15:07.536Z,38.98
2023-03-07T04:17:35.768Z,38.99
2023-03-07T04:20:04.949Z,39.05
2023-03-07T04:22:33.550Z,38.83
2023-03-07T04:25:01.426Z,39.24
2023-03-07T04:27:29.432Z,38.45
2023-03-07T04:29:57.392Z,38.96
2023-03-07T04:32:25.473Z,38.39
2023-03-07T04:34:52.932Z,38.18
2023-03-07T04:37:20.426Z,38.27
2023-03-07T04:39:48.169Z,38.15
2023-03-07T04:42:16.485Z,37.88
2023-03-07T04:44:43.888Z,38.20
2023-03-07T04:47:11.960Z,37.36
2023-03-07T04:49:40.353Z,37.14
2023-03-07T04:52:08.694Z,36.82
2023-03-07T04:54:36.553Z,36.64
2023-03-07T04:57:04.270Z,36.71
2023-03-07T04:59:32.136Z,36.52
2023-03-07T05:01:59.580Z,35.96
2023-03-07T05:04:27.958Z,35.47
2023-03-07T05:06:55.753Z,35.43
2023-03-07T05:09:23.228Z,35.08
2023-03-07T05:11:52.579Z,34.10
2023-03-07T05:14:21.451Z,34.47
2023-03-07T05:16:49.076Z,33.78
2023-03-07T05:19:16.626Z,33.63
2023-03-07T05:21:44.645Z,34.21
2023-03-07T05:24:12.697Z,33.95
2023-03-07T05:26:40.454Z,33.92
2023-03-07T05:29:07.815Z,34.10
2023-03-07T05:31:36.112Z,34.13
2023-03-07T05:34:08.265Z,34.39
2023-03-07T05:36:36.628Z,34.65
2023-03-07T05:39:04.867Z,35.19
2023-03-07T05:41:35.104Z,35.16
2023-03-07T05:44:03.231Z,34.93
2023-03-07T05:46:31.228Z,35.85
2023-03-07T05:48:58.937Z,35.57
2023-03-07T05:51:26.503Z,35.79
2023-03-07T05:53:54.530Z,35.82
2023-03-07T05:56:22.923Z,35.60
2023-03-07T05:58:50.558Z,35.98
2023-03-07T06:01:18.384Z,35.95
2023-03-07T06:03:45.842Z,35.91
2023-03-07T06:06:13.232Z,36.21
2023-03-07T06:08:41.625Z,36.79
2023-03-07T06:11:10.055Z,36.91
2023-03-07T06:13:38.839Z,37.22
2023-03-07T06:16:06.132Z,36.93
2023-03-07T06:18:35.359Z,37.04
2023-03-07T06:21:05.948Z,36.76
2023-03-07T06:23:37.983Z,37.02
2023-03-07T06:26:12.109Z,37.34
2023-03-07T06:28:40.429Z,37.76
2023-03-07T06:31:09.466Z,37.95
2023-03-07T06:33:37.261Z,38.10
2023-03-07T06:36:08.175Z,37.73
2023-03-07T06:38:37.287Z,36.53
2023-03-07T06:41:05.112Z,35.92
2023-03-07T06:43:32.886Z,33.38
2023-03-07T06:46:01.231Z,32.20
2023-03-07T06:48:34.842Z,31.52
2023-03-07T06:51:09.575Z,31.40
2023-03-07T06:53:39.154Z,31.26
2023-03-07T06:56:06.700Z,30.73
2023-03-07T06:58:35.507Z,30.39
2023-03-07T07:01:03.564Z,29.86
2023-03-07T07:03:34.775Z,29.31
2023-03-07T07:06:03.371Z,29.67
2023-03-07T07:08:31.194Z,29.89
2023-03-07T07:10:59.330Z,29.70
2023-03-07T07:13:27.243Z,29.96
2023-03-07T07:15:55.127Z,29.99
2023-03-07T07:18:23.433Z,30.13
2023-03-07T07:20:57.832Z,30.47
2023-03-07T07:23:26.873Z,30.73
2023-03-07T07:25:55.353Z,30.69
2023-03-07T07:28:22.879Z,30.46
2023-03-07T07:30:50.164Z,30.43
2023-03-07T07:33:17.393Z,30.18
2023-03-07T07:35:48.562Z,30.62
2023-03-07T07:38:15.879Z,30.54
2023-03-07T07:40:45.087Z,30.50
2023-03-07T07:43:16.977Z,30.95
2023-03-07T07:46:07.599Z,30.52
2023-03-07T07:48:34.843Z,30.76
2023-03-07T07:51:03.723Z,30.50
2023-03-07T07:53:31.719Z,30.76
2023-03-07T07:55:59.230Z,31.18
2023-03-07T07:58:26.970Z,31.80
2023-03-07T08:00:54.198Z,31.88
2023-03-07T08:03:21.579Z,31.75
2023-03-07T08:05:48.677Z,32.25
2023-03-07T08:08:16.822Z,32.97
2023-03-07T08:10:45.670Z,33.09
2023-03-07T08:13:13.862Z,33.56
2023-03-07T08:15:41.542Z,33.73
2023-03-07T08:18:10.611Z,34.15
2023-03-07T08:20:38.645Z,34.38
2023-03-07T08:23:05.933Z,34.80
2023-03-07T08:25:33.195Z,35.27
2023-03-07T08:28:03.271Z,34.84
2023-03-07T08:30:31.650Z,34.87
2023-03-07T08:32:59.278Z,35.51
2023-03-07T08:35:28.636Z,35.06
2023-03-07T08:37:57.125Z,35.14
2023-03-07T08:40:25.912Z,34.83
2023-03-07T08:42:55.058Z,34.56
2023-03-07T08:45:23.440Z,34.82
2023-03-07T08:47:54.881Z,34.50
2023-03-07T08:50:23.209Z,34.58
2023-03-07T08:52:50.807Z,34.41
2023-03-07T08:55:18.401Z,35.08
2023-03-07T08:57:47.279Z,35.54
2023-03-07T09:00:14.936Z,35.26
2023-03-07T09:02:42.495Z,36.02
2023-03-07T09:05:10.152Z,35.85
2023-03-07T09:07:37.289Z,35.74
2023-03-07T09:10:05.993Z,35.50
2023-03-07T09:12:34.015Z,35.38
2023-03-07T09:15:01.370Z,35.41
2023-03-07T09:17:29.000Z,35.64
2023-03-07T09:19:56.424Z,35.40
2023-03-07T09:22:23.930Z,35.54
2023-03-07T09:24:51.229Z,35.62
2023-03-07T09:27:18.813Z,35.41
2023-03-07T09:29:49.883Z,35.68
2023-03-07T09:32:17.646Z,35.88
2023-03-07T09:34:45.085Z,36.15
2023-03-07T09:37:12.493Z,36.59
2023-03-07T09:39:40.081Z,36.06
2023-03-07T09:42:36.530Z,36.51
2023-03-07T09:45:15.209Z,36.38
2023-03-07T09:47:58.326Z,36.28
2023-03-07T09:50:49.301Z,37.19
2023-03-07T09:53:30.259Z,36.53
2023-03-07T09:55:58.486Z,36.77
2023-03-07T09:58:25.754Z,36.68
2023-03-07T10:00:57.795Z,36.62
2023-03-07T10:03:51.591Z,36.21
2023-03-07T10:06:37.435Z,36.47
2023-03-07T10:09:12.412Z,36.23
2023-03-07T10:11:55.306Z,36.32
2023-03-07T10:14:57.300Z,35.50
2023-03-07T10:17:27.538Z,36.11
2023-03-07T10:19:59.246Z,35.54
2023-03-07T10:22:49.095Z,34.04
2023-03-07T10:25:52.705Z,33.00
2023-03-07T10:28:28.563Z,33.29
2023-03-07T10:30:59.631Z,33.22
2023-03-07T10:33:27.475Z,33.70
2023-03-07T10:36:06.392Z,32.99
2023-03-07T10:38:40.604Z,34.49
2023-03-07T10:41:15.363Z,34.64
2023-03-07T10:43:43.046Z,35.04
2023-03-07T10:46:25.321Z,35.46
2023-03-07T10:48:56.463Z,35.66
2023-03-07T10:51:50.815Z,36.02
2023-03-07T10:54:22.887Z,36.56
2023-03-07T10:57:10.000Z,36.43
2023-03-07T10:59:39.142Z,37.59
2023-03-07T11:02:25.387Z,38.52
2023-03-07T11:04:53.106Z,37.92
2023-03-07T11:07:28.394Z,38.74
2023-03-07T11:09:57.015Z,38.56
2023-03-07T11:12:25.913Z,39.37
2023-03-07T11:15:17.366Z,39.19
2023-03-07T11:17:46.457Z,39.65
2023-03-07T11:20:20.130Z,40.49
2023-03-07T11:22:47.592Z,40.78
2023-03-07T11:25:17.070Z,41.23
2023-03-07T11:27:50.658Z,41.90
2023-03-07T11:30:36.868Z,42.86
2023-03-07T11:33:24.562Z,43.49
2023-03-07T11:36:09.057Z,43.90
2023-03-07T11:38:55.562Z,44.35
2023-03-07T11:41:36.394Z,44.90
2023-03-07T11:44:26.270Z,45.51
2023-03-07T11:47:22.272Z,46.11
2023-03-07T11:50:19.195Z,46.31
2023-03-07T11:53:19.604Z,46.79
2023-03-07T11:56:09.767Z,47.15
2023-03-07T11:59:05.325Z,47.21
2023-03-07T12:01:37.527Z,47.75
2023-03-07T12:04:29.561Z,47.93
2023-03-07T12:07:21.326Z,48.10
2023-03-07T12:10:22.917Z,48.21
2023-03-07T12:13:15.368Z,48.50
2023-03-07T12:16:03.173Z,48.35
2023-03-07T12:18:40.992Z,48.71
2023-03-07T12:21:08.473Z,49.15
2023-03-07T12:23:57.186Z,48.90
2023-03-07T12:26:46.609Z,49.56
2023-03-07T12:29:21.333Z,49.60
2023-03-07T12:31:51.548Z,49.85
2023-03-07T12:34:56.099Z,50.36
2023-03-07T12:37:25.926Z,49.62
2023-03-07T12:40:19.286Z,50.14
2023-03-07T12:43:14.970Z,50.41
2023-03-07T12:46:03.974Z,50.36
2023-03-07T12:48:38.806Z,50.47
2023-03-07T12:51:31.570Z,50.35
2023-03-07T12:54:03.825Z,50.48
2023-03-07T12:56:58.979Z,50.27
2023-03-07T12:59:26.406Z,50.01
2023-03-07T13:02:04.323Z,50.28
2023-03-07T13:04:39.214Z,50.48
2023-03-07T13:07:12.409Z,50.15
2023-03-07T13:09:40.591Z,50.63
2023-03-07T13:12:19.887Z,49.92
2023-03-07T13:14:48.406Z,49.80
2023-03-07T13:17:31.002Z,49.95
2023-03-07T13:19:59.808Z,49.84
2023-03-07T13:22:27.149Z,49.32
2023-03-07T13:24:55.671Z,49.30
2023-03-07T13:27:35.805Z,49.10
2023-03-07T13:30:19.590Z,48.93
2023-03-07T13:32:55.749Z,48.54
2023-03-07T13:35:31.706Z,48.73
2023-03-07T13:38:15.030Z,48.44
2023-03-07T13:40:46.120Z,48.58
2023-03-07T13:43:22.628Z,48.34
2023-03-07T13:45:56.562Z,48.40
2023-03-07T13:48:30.127Z,47.71
2023-03-07T13:51:00.361Z,47.69
2023-03-07T13:53:34.121Z,47.82
2023-03-07T13:56:16.338Z,47.55
2023-03-07T13:58:56.588Z,47.62
2023-03-07T14:01:29.887Z,47.44
2023-03-07T14:03:58.412Z,47.21
2023-03-07T14:06:54.949Z,47.15
2023-03-07T14:09:49.725Z,47.70
2023-03-07T14:12:44.810Z,47.35
2023-03-07T14:15:44.632Z,47.80
2023-03-07T14:18:21.200Z,47.06
2023-03-07T14:20:59.744Z,47.04
2023-03-07T14:23:55.522Z,47.33
2023-03-07T14:26:26.753Z,47.36
2023-03-07T14:29:00.370Z,47.49
2023-03-07T14:31:30.652Z,47.34
2023-03-07T14:33:58.473Z,47.96
2023-03-07T14:36:29.991Z,47.76
2023-03-07T14:38:58.869Z,48.18
2023-03-07T14:41:50.534Z,47.78
2023-03-07T14:44:35.116Z,48.18
2023-03-07T14:47:27.064Z,48.42
2023-03-07T14:50:00.237Z,48.24
2023-03-07T14:52:31.693Z,48.02
2023-03-07T14:55:02.982Z,48.27
2023-03-07T14:57:45.728Z,48.20
2023-03-07T15:00:29.399Z,48.56
2023-03-07T15:02:59.626Z,47.86
2023-03-07T15:05:32.971Z,47.68
2023-03-07T15:08:00.567Z,47.79
2023-03-07T15:10:42.061Z,48.05
2023-03-07T15:13:15.776Z,49.16
2023-03-07T15:15:46.711Z,49.29
2023-03-07T15:18:23.151Z,49.75
2023-03-07T15:20:50.472Z,49.28
2023-03-07T15:23:27.297Z,50.06
2023-03-07T15:26:06.650Z,50.35
2023-03-07T15:28:36.186Z,50.86
2023-03-07T15:31:04.602Z,51.38
2023-03-07T15:33:32.704Z,51.70
2023-03-07T15:36:13.523Z,51.88
2023-03-07T15:38:44.817Z,51.82
2023-03-07T15:41:36.047Z,52.30
2023-03-07T15:44:16.626Z,52.84
2023-03-07T15:46:54.968Z,53.05
2023-03-07T15:49:36.830Z,53.49
2023-03-07T15:52:04.707Z,53.20
2023-03-07T15:54:40.681Z,53.17
2023-03-07T15:57:19.346Z,53.13
2023-03-07T16:00:05.496Z,53.51
2023-03-07T16:02:33.434Z,53.07
2023-03-07T16:05:02.129Z,53.14
2023-03-07T16:07:29.503Z,53.02
2023-03-07T16:09:56.649Z,53.56
2023-03-07T16:12:24.309Z,53.32
2023-03-07T16:14:52.974Z,53.50
2023-03-07T16:17:30.482Z,54.12
2023-03-07T16:19:58.484Z,54.22
2023-03-07T16:22:26.459Z,54.59
2023-03-07T16:24:54.061Z,54.73
2023-03-07T16:27:22.464Z,55.03
2023-03-07T16:29:50.451Z,54.65
2023-03-07T16:32:19.937Z,55.09
2023-03-07T16:34:48.866Z,55.37
2023-03-07T16:37:16.617Z,55.72
2023-03-07T16:39:43.860Z,55.78
2023-03-07T16:42:19.125Z,55.73
2023-03-07T16:44:46.441Z,55.90
2023-03-07T16:47:17.786Z,55.90
2023-03-07T16:49:46.482Z,56.48
2023-03-07T16:52:14.025Z,56.90
2023-03-07T16:54:41.973Z,57.13
2023-03-07T16:57:16.191Z,57.30
2023-03-07T16:59:47.830Z,57.41
2023-03-07T17:02:18.991Z,58.25
2023-03-07T17:04:47.085Z,58.12
2023-03-07T17:07:18.734Z,58.43
2023-03-07T17:09:46.243Z,58.52
2023-03-07T17:12:14.439Z,58.96
2023-03-07T17:14:42.669Z,58.97
2023-03-07T17:17:22.269Z,60.27
2023-03-07T17:19:50.516Z,60.26
2023-03-07T17:22:19.990Z,60.72
2023-03-07T17:24:47.871Z,60.06
2023-03-07T17:27:15.282Z,59.79
2023-03-07T17:29:49.634Z,59.88
2023-03-07T17:32:17.325Z,59.70
2023-03-07T17:34:44.588Z,59.25
2023-03-07T17:37:12.445Z,59.41
2023-03-07T17:39:39.801Z,59.43
2023-03-07T17:42:07.688Z,59.55
2023-03-07T17:44:35.624Z,59.70
2023-03-07T17:47:03.472Z,59.53
2023-03-07T17:49:34.976Z,59.65
2023-03-07T17:52:02.711Z,59.25
2023-03-07T17:54:31.468Z,59.05
2023-03-07T17:56:59.237Z,58.67
2023-03-07T17:59:26.974Z,58.55
2023-03-07T18:01:54.941Z,57.91
2023-03-07T18:04:22.501Z,58.24
2023-03-07T18:06:49.769Z,58.45
2023-03-07T18:09:18.800Z,58.49
2023-03-07T18:11:46.224Z,58.79
2023-03-07T18:14:13.729Z,58.69
2023-03-07T18:16:41.444Z,58.63
2023-03-07T18:19:20.447Z,58.60
2023-03-07T18:21:52.863Z,58.23
2023-03-07T18:24:28.171Z,58.46
2023-03-07T18:26:56.267Z,58.41
2023-03-07T18:29:23.652Z,58.05
2023-03-07T18:31:51.142Z,57.99
2023-03-07T18:34:18.334Z,57.75
2023-03-07T18:36:48.067Z,58.22
2023-03-07T18:39:15.734Z,58.63
2023-03-07T18:41:43.009Z,58.61
2023-03-07T18:44:10.556Z,58.45
2023-03-07T18:46:38.170Z,59.02
2023-03-07T18:49:06.007Z,59.06
2023-03-07T18:51:33.567Z,58.40
2023-03-07T18:54:01.615Z,58.36
2023-03-07T18:56:29.469Z,58.39
2023-03-07T18:58:58.701Z,58.89
2023-03-07T19:01:30.342Z,58.93
2023-03-07T19:04:00.154Z,59.26
2023-03-07T19:06:36.870Z,59.43
2023-03-07T19:09:04.060Z,58.79
2023-03-07T19:11:31.375Z,59.00
2023-03-07T19:13:59.514Z,58.81
2023-03-07T19:16:27.550Z,58.84
2023-03-07T19:18:55.015Z,58.86
2023-03-07T19:21:24.001Z,58.75
2023-03-07T19:23:52.223Z,58.73
2023-03-07T19:26:20.280Z,58.62
2023-03-07T19:28:49.141Z,58.44
2023-03-07T19:31:18.428Z,58.25
2023-03-07T19:33:45.979Z,58.50
2023-03-07T19:36:17.074Z,58.72
2023-03-07T19:38:44.453Z,58.43
2023-03-07T19:41:13.288Z,58.38
2023-03-07T19:43:40.696Z,58.43
2023-03-07T19:46:09.019Z,58.55
2023-03-07T19:48:36.612Z,58.48
2023-03-07T19:51:04.467Z,58.58
2023-03-07T19:53:31.886Z,59.04
2023-03-07T19:56:12.175Z,58.81
2023-03-07T19:58:39.450Z,59.14
2023-03-07T20:01:08.611Z,58.86
2023-03-07T20:03:36.251Z,59.05
2023-03-07T20:06:04.032Z,59.22
2023-03-07T20:08:33.659Z,59.60
2023-03-07T20:11:14.592Z,60.00
2023-03-07T20:13:42.560Z,59.73
2023-03-07T20:16:10.617Z,59.84
2023-03-07T20:18:38.182Z,60.56
2023-03-07T20:21:10.334Z,60.82
2023-03-07T20:23:37.753Z,60.80
2023-03-07T20:26:07.098Z,60.68
2023-03-07T20:28:34.909Z,60.67
2023-03-07T20:31:03.814Z,61.12
2023-03-07T20:33:31.275Z,60.58
2023-03-07T20:36:08.718Z,61.21
2023-03-07T20:38:36.776Z,60.74
2023-03-07T20:41:23.565Z,60.60
2023-03-07T20:43:51.822Z,60.56
2023-03-07T20:46:20.346Z,60.53
2023-03-07T20:48:48.286Z,60.22
2023-03-07T20:51:20.882Z,60.62
2023-03-07T20:53:49.742Z,60.05
2023-03-07T20:56:17.347Z,60.07
2023-03-07T20:58:44.556Z,60.04
2023-03-07T21:01:11.967Z,59.76
2023-03-07T21:03:39.479Z,59.35
2023-03-07T21:06:06.849Z,59.30
2023-03-07T21:08:35.762Z,58.93
2023-03-07T21:11:07.571Z,59.04
2023-03-07T21:13:36.308Z,58.80
2023-03-07T21:16:09.693Z,58.62
2023-03-07T21:18:36.962Z,58.80
2023-03-07T21:21:06.195Z,58.61
2023-03-07T21:23:33.720Z,58.39
2023-03-07T21:26:05.339Z,58.69
2023-03-07T21:28:33.420Z,58.51
2023-03-07T21:31:04.532Z,58.52
2023-03-07T21:33:32.083Z,58.02
2023-03-07T21:35:59.475Z,57.81
2023-03-07T21:38:26.998Z,58.17
2023-03-07T21:40:54.763Z,58.05
2023-03-07T21:43:22.377Z,57.91
2023-03-07T21:45:49.982Z,57.87
2023-03-07T21:48:19.025Z,57.73
2023-03-07T21:50:47.934Z,57.73
2023-03-07T21:53:15.329Z,57.66
2023-03-07T21:55:50.464Z,57.78
2023-03-07T21:58:17.906Z,57.02
2023-03-07T22:00:45.436Z,57.47
2023-03-07T22:03:13.071Z,57.11
2023-03-07T22:05:40.536Z,57.26
2023-03-07T22:08:08.274Z,56.99
2023-03-07T22:10:35.539Z,56.88
2023-03-07T22:13:04.565Z,56.66
2023-03-07T22:15:33.102Z,56.57
2023-03-07T22:18:00.459Z,56.60
2023-03-07T22:20:27.941Z,56.18
2023-03-07T22:22:55.293Z,55.63
2023-03-07T22:25:22.633Z,55.66
2023-03-07T22:27:50.165Z,55.65
2023-03-07T22:30:18.293Z,55.33
2023-03-07T22:32:45.422Z,55.58
2023-03-07T22:35:12.767Z,54.93
2023-03-07T22:37:41.843Z,54.77
2023-03-07T22:40:09.569Z,55.09
2023-03-07T22:42:36.996Z,55.22
2023-03-07T22:45:04.785Z,54.69
2023-03-07T22:47:32.263Z,55.05
2023-03-07T22:49:59.511Z,54.93
2023-03-07T22:52:27.013Z,55.31
2023-03-07T22:54:54.523Z,55.05
2023-03-07T22:57:21.802Z,55.40
2023-03-07T22:59:49.288Z,55.41
2023-03-07T23:02:16.537Z,54.85
2023-03-07T23:04:43.855Z,55.25
2023-03-07T23:07:11.331Z,55.08
2023-03-07T23:09:38.721Z,55.16
2023-03-07T23:12:06.594Z,55.53
2023-03-07T23:14:33.991Z,55.04
2023-03-07T23:17:01.164Z,55.51
2023-03-07T23:19:31.229Z,55.29
2023-03-07T23:21:58.660Z,55.17
2023-03-07T23:24:26.205Z,55.12
2023-03-07T23:26:53.679Z,55.17
2023-03-07T23:29:21.472Z,55.27
2023-03-07T23:31:48.875Z,55.27
2023-03-07T23:34:18.088Z,55.09
2023-03-07T23:36:45.628Z,54.89
2023-03-07T23:39:13.213Z,55.32
2023-03-07T23:41:40.379Z,55.13
2023-03-07T23:44:07.654Z,55.15
2023-03-07T23:46:35.314Z,54.99
2023-03-07T23:49:02.454Z,54.86
2023-03-07T23:51:30.112Z,54.73
2023-03-07T23:53:57.536Z,54.27
2023-03-07T23:56:25.273Z,54.16
2023-03-07T23:58:52.652Z,54.07
